Time;durP1;ratioP1;P1;durP2;ratioP2;P2;SDS_P1;SDS_P2;PMS_P1;PMS_P2;Temp;Humidity;BMP_temperature;BMP_pressure;BME280_temperature;BME280_humidity;BME280_pressure;Samples;Min_cycle;Max_cycle;Signal;HPM_P1;HPM_P2
2023/11/03 00:02:16;;;;;;;3.85;0.80;;;15.00;88.40;;;;;;5020596;28;20028;-82
2023/11/03 00:04:43;;;;;;;2.75;0.90;;;15.10;89.00;;;;;;5038172;28;20030;-81
2023/11/03 00:07:09;;;;;;;4.03;0.80;;;15.10;88.00;;;;;;5020037;28;20032;-81
2023/11/03 00:09:36;;;;;;;2.72;0.82;;;15.10;88.40;;;;;;5019607;28;20083;-82
2023/11/03 00:12:03;;;;;;;3.38;0.90;;;15.00;87.80;;;;;;5037775;28;20129;-82
2023/11/03 00:14:29;;;;;;;2.63;1.00;;;15.00;88.10;;;;;;5019518;28;20029;-82
2023/11/03 00:16:56;;;;;;;2.78;1.00;;;15.00;88.30;;;;;;5036875;28;20025;-81
2023/11/03 00:19:25;;;;;;;5.70;0.98;;;15.00;88.30;;;;;;5019292;28;20087;-81
2023/11/03 00:21:51;;;;;;;2.72;0.85;;;15.00;88.40;;;;;;5019470;28;20021;-82
2023/11/03 00:24:16;;;;;;;1.95;0.70;;;15.00;88.40;;;;;;5020030;28;20471;-82
2023/11/03 00:26:43;;;;;;;3.15;1.10;;;15.00;88.20;;;;;;5019400;28;20029;-82
2023/11/03 00:29:09;;;;;;;2.22;0.75;;;15.00;88.10;;;;;;5017324;28;20036;-82
2023/11/03 00:31:34;;;;;;;2.03;0.70;;;15.00;88.40;;;;;;5036679;28;20021;-82
2023/11/03 00:34:00;;;;;;;2.50;0.70;;;15.10;88.90;;;;;;5036246;28;20387;-81
2023/11/03 00:36:25;;;;;;;2.95;0.77;;;15.00;88.80;;;;;;5036895;28;20026;-82
2023/11/03 00:38:51;;;;;;;2.33;0.73;;;15.10;88.70;;;;;;5036002;28;20026;-82
2023/11/03 00:41:17;;;;;;;2.22;0.70;;;15.00;87.90;;;;;;5036631;28;20052;-82
2023/11/03 00:43:43;;;;;;;2.53;0.70;;;15.10;87.70;;;;;;5036415;28;20036;-81
2023/11/03 00:46:09;;;;;;;2.60;0.90;;;15.10;87.40;;;;;;5038141;28;20117;-82
2023/11/03 00:48:36;;;;;;;4.43;0.93;;;15.10;87.50;;;;;;5036317;28;20033;-81
2023/11/03 00:51:03;;;;;;;2.60;0.70;;;15.10;87.50;;;;;;5035751;28;20388;-82
2023/11/03 00:53:29;;;;;;;2.13;0.80;;;15.10;87.60;;;;;;5037538;28;20029;-81
2023/11/03 00:55:55;;;;;;;4.97;1.10;;;15.10;87.80;;;;;;5019077;28;20026;-82
2023/11/03 00:58:20;;;;;;;2.25;1.00;;;15.10;87.40;;;;;;5035663;28;20029;-82
2023/11/03 01:00:47;;;;;;;2.55;0.88;;;15.10;87.10;;;;;;5037701;28;20446;-82
2023/11/03 01:03:14;;;;;;;2.47;0.80;;;15.10;87.60;;;;;;5035568;28;20060;-82
2023/11/03 01:05:40;;;;;;;4.22;0.90;;;15.10;87.40;;;;;;5036147;28;20052;-81
2023/11/03 01:08:05;;;;;;;1.95;0.73;;;15.10;87.70;;;;;;5038232;28;20035;-82
2023/11/03 01:10:32;;;;;;;1.75;0.60;;;15.10;87.60;;;;;;5035693;28;20105;-81
2023/11/03 01:12:59;;;;;;;3.28;0.80;;;15.00;87.90;;;;;;5019122;28;20027;-81
2023/11/03 01:15:24;;;;;;;3.10;0.68;;;15.10;88.20;;;;;;5037050;28;20107;-82
2023/11/03 01:17:50;;;;;;;1.95;0.60;;;15.10;88.30;;;;;;5036713;28;20029;-82
2023/11/03 01:20:26;;;;;;;3.40;1.00;;;15.00;88.40;;;;;;5036464;28;20037;-81
2023/11/03 01:22:51;;;;;;;3.08;0.75;;;15.00;88.40;;;;;;5018752;28;20026;-81
2023/11/03 01:25:17;;;;;;;2.50;0.80;;;15.00;88.20;;;;;;5034834;28;20032;-81
2023/11/03 01:27:43;;;;;;;3.38;0.82;;;15.00;88.20;;;;;;5035287;28;20120;-82
2023/11/03 01:30:10;;;;;;;4.18;0.93;;;15.10;88.30;;;;;;5035103;28;20035;-82
2023/11/03 01:32:36;;;;;;;3.03;0.90;;;15.00;88.20;;;;;;5018754;28;20809;-82
2023/11/03 01:35:02;;;;;;;2.78;0.77;;;15.00;88.30;;;;;;5035561;28;20044;-82
2023/11/03 01:37:28;;;;;;;1.92;0.70;;;15.00;88.50;;;;;;5034639;28;20021;-82
2023/11/03 01:39:53;;;;;;;3.17;0.80;;;15.10;88.50;;;;;;5034568;28;20035;-82
2023/11/03 01:42:19;;;;;;;2.75;0.80;;;15.00;88.60;;;;;;5033766;28;20064;-82
2023/11/03 01:44:45;;;;;;;2.55;0.60;;;15.00;88.40;;;;;;5036018;28;20036;-82
2023/11/03 01:47:10;;;;;;;2.75;0.85;;;15.00;89.00;;;;;;5034579;28;20025;-82
2023/11/03 01:49:37;;;;;;;3.35;0.80;;;15.00;88.60;;;;;;5035770;28;20037;-82
2023/11/03 01:52:04;;;;;;;1.90;0.77;;;15.00;88.90;;;;;;5036815;28;20025;-81
2023/11/03 01:54:30;;;;;;;2.80;0.80;;;15.00;88.90;;;;;;5018407;28;20029;-82
2023/11/03 01:56:56;;;;;;;2.15;0.73;;;15.00;88.90;;;;;;5018658;28;20040;-82
2023/11/03 01:59:22;;;;;;;3.63;0.90;;;15.10;88.80;;;;;;5034024;28;20034;-82
2023/11/03 02:01:51;;;;;;;3.30;0.80;;;15.00;88.60;;;;;;5035050;28;20080;-82
2023/11/03 02:04:18;;;;;;;2.25;0.60;;;15.10;88.60;;;;;;5036239;28;20049;-82
2023/11/03 02:06:45;;;;;;;2.20;0.77;;;15.10;88.20;;;;;;5018568;28;20026;-82
2023/11/03 02:09:11;;;;;;;3.50;0.90;;;15.10;88.10;;;;;;5036859;28;20813;-82
2023/11/03 02:11:43;;;;;;;3.08;0.73;;;15.10;87.90;;;;;;5035061;28;20025;-82
2023/11/03 02:14:08;;;;;;;3.20;0.77;;;15.10;87.70;;;;;;5018449;28;20040;-82
2023/11/03 02:16:35;;;;;;;1.83;0.50;;;15.10;88.10;;;;;;5034969;28;20033;-82
2023/11/03 02:19:03;;;;;;;2.90;0.70;;;15.10;88.00;;;;;;5035000;28;20033;-82
2023/11/03 02:21:33;;;;;;;2.13;0.77;;;15.10;88.20;;;;;;5035921;28;20026;-82
2023/11/03 02:23:59;;;;;;;2.30;0.60;;;15.10;88.30;;;;;;5017809;28;20021;-82
2023/11/03 02:26:24;;;;;;;2.30;0.60;;;15.10;88.30;;;;;;5036178;28;20490;-82
2023/11/03 02:28:50;;;;;;;3.53;1.27;;;15.10;88.40;;;;;;5034240;28;20026;-80
2023/11/03 02:31:15;;;;;;;3.55;0.85;;;15.10;88.40;;;;;;5036321;28;20487;-82
2023/11/03 02:33:41;;;;;;;2.10;0.85;;;15.10;88.40;;;;;;5034392;28;20049;-82
2023/11/03 02:36:07;;;;;;;2.78;0.80;;;15.00;88.50;;;;;;5036788;28;20030;-82
2023/11/03 02:38:32;;;;;;;1.88;0.70;;;15.00;88.40;;;;;;5017513;28;20085;-82
2023/11/03 02:40:58;;;;;;;3.20;0.95;;;15.00;88.50;;;;;;5035921;28;20542;-82
2023/11/03 02:43:23;;;;;;;2.70;0.70;;;15.00;88.50;;;;;;5034713;28;20110;-82
2023/11/03 02:45:52;;;;;;;1.98;0.70;;;15.10;88.60;;;;;;5036804;28;20052;-81
2023/11/03 02:48:18;;;;;;;2.17;0.70;;;15.00;88.70;;;;;;5032910;28;20491;-81
2023/11/03 02:50:43;;;;;;;2.42;0.80;;;15.00;88.70;;;;;;5031577;28;20033;-82
2023/11/03 02:53:09;;;;;;;1.85;0.70;;;15.00;88.30;;;;;;5033599;28;20084;-81
2023/11/03 02:55:35;;;;;;;2.58;0.63;;;15.00;88.30;;;;;;5035646;28;20049;-81
2023/11/03 02:58:02;;;;;;;1.80;0.60;;;15.00;88.50;;;;;;5036105;28;20093;-81
2023/11/03 03:00:28;;;;;;;1.60;0.70;;;15.00;88.60;;;;;;5035577;28;20021;-82
2023/11/03 03:02:54;;;;;;;2.28;0.70;;;15.00;88.50;;;;;;5035896;28;20021;-82
2023/11/03 03:05:20;;;;;;;1.50;0.50;;;15.00;88.60;;;;;;5035722;28;20021;-81
2023/11/03 03:07:46;;;;;;;2.88;0.85;;;15.00;88.60;;;;;;5035415;28;20044;-80
2023/11/03 03:10:12;;;;;;;2.22;0.60;;;15.00;88.60;;;;;;5035739;28;20117;-81
2023/11/03 03:12:38;;;;;;;1.48;0.52;;;15.00;88.80;;;;;;5019050;28;20068;-81
2023/11/03 03:15:04;;;;;;;3.08;0.77;;;15.00;88.80;;;;;;5035734;28;20040;-81
2023/11/03 03:17:32;;;;;;;2.13;0.75;;;15.00;89.00;;;;;;5036830;28;20059;-81
2023/11/03 03:19:59;;;;;;;2.22;0.80;;;15.00;89.00;;;;;;5035165;28;20033;-82
2023/11/03 03:22:24;;;;;;;2.53;0.80;;;15.00;88.90;;;;;;5025958;28;20036;-81
2023/11/03 03:24:50;;;;;;;2.45;0.70;;;15.00;88.60;;;;;;5019078;28;20044;-82
2023/11/03 03:27:15;;;;;;;1.80;0.60;;;15.00;88.20;;;;;;5019819;28;20024;-81
2023/11/03 03:29:41;;;;;;;3.13;0.73;;;15.00;88.00;;;;;;5037422;28;20029;-82
2023/11/03 03:32:06;;;;;;;2.40;0.50;;;15.10;87.60;;;;;;5037843;28;20031;-81
2023/11/03 03:34:32;;;;;;;2.03;0.77;;;15.10;87.50;;;;;;5036657;28;20441;-81
2023/11/03 03:36:57;;;;;;;3.33;0.90;;;15.10;87.80;;;;;;5018105;28;20499;-82
2023/11/03 03:39:23;;;;;;;3.58;0.68;;;15.10;87.70;;;;;;5017767;28;20037;-82
2023/11/03 03:41:51;;;;;;;2.45;0.70;;;15.00;87.70;;;;;;5018269;28;20398;-81
2023/11/03 03:44:17;;;;;;;3.28;0.80;;;15.00;87.80;;;;;;5019279;28;20029;-82
2023/11/03 03:46:43;;;;;;;2.17;0.70;;;15.00;88.10;;;;;;5018811;28;20036;-81
2023/11/03 03:49:08;;;;;;;1.92;0.60;;;15.00;87.90;;;;;;5018231;28;20028;-81
2023/11/03 03:51:34;;;;;;;3.13;0.60;;;15.00;88.10;;;;;;5018749;28;20398;-81
2023/11/03 03:53:59;;;;;;;2.13;0.63;;;15.00;87.90;;;;;;5036298;28;20634;-81
2023/11/03 03:56:26;;;;;;;1.55;0.60;;;15.00;88.10;;;;;;5017540;28;20029;-82
2023/11/03 03:58:55;;;;;;;1.92;0.47;;;15.00;88.10;;;;;;5019049;28;20032;-83
2023/11/03 04:01:24;;;;;;;2.17;0.70;;;15.00;88.10;;;;;;5036141;28;20033;-81
2023/11/03 04:03:49;;;;;;;2.35;0.70;;;15.00;88.20;;;;;;5018780;28;20022;-82
2023/11/03 04:06:15;;;;;;;2.50;0.60;;;15.00;88.30;;;;;;5017944;28;20109;-81
2023/11/03 04:08:40;;;;;;;3.00;0.80;;;15.00;88.20;;;;;;5018324;28;20021;-81
2023/11/03 04:11:06;;;;;;;2.35;0.80;;;14.90;88.20;;;;;;5018233;28;20391;-82
2023/11/03 04:13:32;;;;;;;1.33;0.52;;;15.00;88.20;;;;;;5018970;28;20034;-81
2023/11/03 04:15:58;;;;;;;1.98;0.52;;;15.00;88.00;;;;;;5036039;28;20033;-81
2023/11/03 04:18:23;;;;;;;2.40;0.80;;;14.90;87.70;;;;;;5018543;28;20040;-80
2023/11/03 04:20:49;;;;;;;1.95;0.55;;;15.00;88.10;;;;;;5036385;28;20052;-81
2023/11/03 04:23:15;;;;;;;3.00;0.60;;;14.90;88.30;;;;;;5036981;28;20060;-82
2023/11/03 04:25:41;;;;;;;1.42;0.60;;;15.00;88.20;;;;;;5036183;28;20100;-81
2023/11/03 04:28:07;;;;;;;1.38;0.45;;;14.90;87.80;;;;;;5018042;28;20451;-80
2023/11/03 04:30:34;;;;;;;1.88;0.60;;;14.90;88.10;;;;;;5018039;28;20038;-81
2023/11/03 04:33:00;;;;;;;1.58;0.50;;;15.00;88.00;;;;;;5018059;28;20030;-81
2023/11/03 04:35:26;;;;;;;1.50;0.50;;;15.00;88.70;;;;;;5018101;28;20029;-81
2023/11/03 04:37:51;;;;;;;1.77;0.63;;;15.00;88.80;;;;;;5017574;28;20388;-80
2023/11/03 04:40:21;;;;;;;2.42;0.80;;;15.00;88.90;;;;;;5018294;28;20065;-81
2023/11/03 04:42:47;;;;;;;1.98;0.50;;;15.00;88.80;;;;;;5018328;28;20072;-81
2023/11/03 04:45:13;;;;;;;2.30;0.50;;;15.00;88.50;;;;;;5036126;28;20021;-81
2023/11/03 04:47:38;;;;;;;2.22;0.60;;;15.10;88.30;;;;;;5018506;28;20022;-82
2023/11/03 04:50:06;;;;;;;2.53;0.60;;;15.10;88.00;;;;;;5036572;28;20037;-82
2023/11/03 04:52:33;;;;;;;2.58;0.70;;;15.00;87.90;;;;;;5018688;28;20029;-81
2023/11/03 04:54:59;;;;;;;0.93;0.45;;;15.00;87.80;;;;;;5017972;28;20495;-80
2023/11/03 04:57:24;;;;;;;1.35;0.40;;;15.10;87.90;;;;;;5018497;28;20488;-81
2023/11/03 04:59:50;;;;;;;2.65;0.60;;;15.00;88.40;;;;;;5017594;28;20128;-81
2023/11/03 05:02:17;;;;;;;1.67;0.60;;;15.00;88.50;;;;;;5019006;28;20030;-81
2023/11/03 05:04:43;;;;;;;1.95;0.80;;;15.00;88.00;;;;;;5035388;28;20044;-81
2023/11/03 05:07:08;;;;;;;2.45;0.60;;;15.00;88.20;;;;;;5018042;28;20454;-81
2023/11/03 05:09:36;;;;;;;1.38;0.50;;;15.00;88.20;;;;;;5034812;28;20112;-81
2023/11/03 05:12:03;;;;;;;1.70;0.80;;;15.00;88.10;;;;;;5035455;28;20027;-82
2023/11/03 05:14:29;;;;;;;2.05;0.60;;;15.00;88.10;;;;;;5017797;28;20030;-82
2023/11/03 05:16:55;;;;;;;1.88;0.63;;;14.90;88.20;;;;;;5035085;28;20033;-82
2023/11/03 05:19:20;;;;;;;1.70;0.50;;;15.00;88.50;;;;;;5016759;28;20025;-81
2023/11/03 05:21:46;;;;;;;1.83;0.50;;;14.90;88.50;;;;;;5017057;28;20033;-82
2023/11/03 05:24:12;;;;;;;2.00;0.68;;;14.90;88.50;;;;;;5014272;28;20500;-81
2023/11/03 05:26:37;;;;;;;1.65;0.60;;;15.00;88.60;;;;;;5005843;28;20049;-81
2023/11/03 05:29:03;;;;;;;2.55;0.70;;;15.00;88.50;;;;;;5016777;28;20840;-81
2023/11/03 05:31:29;;;;;;;1.67;0.60;;;14.90;88.50;;;;;;5015978;28;20068;-81
2023/11/03 05:33:55;;;;;;;2.28;0.80;;;14.90;88.50;;;;;;5017073;28;20022;-81
2023/11/03 05:36:22;;;;;;;2.20;0.55;;;14.90;88.40;;;;;;5017505;28;20022;-82
2023/11/03 05:38:48;;;;;;;1.58;0.55;;;14.90;88.60;;;;;;5034652;28;20032;-81
2023/11/03 05:41:14;;;;;;;2.50;0.60;;;14.90;88.50;;;;;;5017587;28;20041;-82
2023/11/03 05:43:39;;;;;;;3.05;0.70;;;14.90;88.60;;;;;;5017173;28;20107;-81
2023/11/03 05:46:05;;;;;;;1.70;0.50;;;14.90;88.70;;;;;;5035566;28;20021;-81
2023/11/03 05:48:31;;;;;;;3.97;0.60;;;14.90;88.70;;;;;;5034184;28;20044;-81
2023/11/03 05:50:56;;;;;;;2.50;0.60;;;14.90;88.70;;;;;;5035180;28;20021;-82
2023/11/03 05:53:22;;;;;;;1.88;0.55;;;14.90;88.80;;;;;;5035297;28;20120;-82
2023/11/03 05:55:47;;;;;;;1.25;0.40;;;14.90;89.00;;;;;;5036683;28;20025;-83
2023/11/03 05:58:13;;;;;;;1.30;0.40;;;15.00;89.10;;;;;;5023964;28;20044;-82
2023/11/03 06:00:38;;;;;;;2.35;0.57;;;14.90;89.00;;;;;;5019295;28;20025;-82
2023/11/03 06:03:04;;;;;;;0.77;0.43;;;15.00;88.90;;;;;;5019151;28;20108;-82
2023/11/03 06:05:29;;;;;;;1.30;0.57;;;15.00;88.70;;;;;;4999977;28;20022;-81
2023/11/03 06:07:55;;;;;;;1.27;0.50;;;15.00;88.20;;;;;;5017362;28;20030;-81
2023/11/03 06:10:21;;;;;;;1.42;0.47;;;15.00;88.20;;;;;;5000034;28;20045;-82
2023/11/03 06:12:49;;;;;;;0.77;0.30;;;15.00;88.10;;;;;;5000727;28;20049;-82
2023/11/03 06:15:17;;;;;;;1.02;0.50;;;15.10;88.30;;;;;;5000066;28;20355;-82
2023/11/03 06:17:43;;;;;;;0.80;0.40;;;15.00;88.30;;;;;;5008989;28;20416;-82
2023/11/03 06:20:09;;;;;;;1.60;0.60;;;15.00;88.40;;;;;;5018509;28;20026;-81
2023/11/03 06:22:35;;;;;;;2.08;0.60;;;15.00;88.40;;;;;;5019571;28;20022;-82
2023/11/03 06:25:00;;;;;;;1.15;0.40;;;15.00;88.50;;;;;;5035018;28;20031;-81
2023/11/03 06:27:26;;;;;;;1.20;0.38;;;15.00;88.50;;;;;;5018067;28;20120;-81
2023/11/03 06:29:51;;;;;;;2.15;0.52;;;15.00;88.60;;;;;;5019925;28;20032;-82
2023/11/03 06:32:17;;;;;;;2.30;0.70;;;15.00;88.70;;;;;;5022826;28;20743;-82
2023/11/03 06:34:42;;;;;;;0.93;0.50;;;15.00;89.20;;;;;;5022856;28;20036;-82
2023/11/03 06:37:08;;;;;;;2.30;0.60;;;14.90;88.70;;;;;;5039891;28;20021;-81
2023/11/03 06:39:34;;;;;;;1.20;0.38;;;14.90;88.70;;;;;;5020252;28;20040;-81
2023/11/03 06:42:00;;;;;;;1.15;0.57;;;14.90;88.80;;;;;;5019843;28;20029;-81
2023/11/03 06:44:25;;;;;;;1.20;0.52;;;14.90;88.90;;;;;;5019047;28;20021;-81
2023/11/03 06:46:51;;;;;;;3.97;0.75;;;14.90;88.90;;;;;;5036238;28;20400;-81
2023/11/03 06:49:17;;;;;;;2.63;0.60;;;14.90;88.90;;;;;;5000207;28;20055;-81
2023/11/03 06:51:43;;;;;;;3.20;0.70;;;14.90;88.70;;;;;;5001751;28;20037;-81
2023/11/03 06:54:09;;;;;;;1.52;0.50;;;14.90;88.70;;;;;;5018502;28;20057;-81
2023/11/03 06:56:36;;;;;;;1.48;0.50;;;14.90;88.70;;;;;;5001574;28;20082;-80
2023/11/03 06:59:02;;;;;;;2.03;0.50;;;14.90;88.80;;;;;;5002941;28;20528;-81
2023/11/03 07:01:27;;;;;;;2.80;0.70;;;14.90;88.80;;;;;;5002918;28;20128;-81
2023/11/03 07:03:53;;;;;;;3.10;0.70;;;14.90;88.80;;;;;;5000288;28;20038;-80
2023/11/03 07:06:20;;;;;;;2.45;0.50;;;14.90;88.90;;;;;;5014230;28;20030;-81
2023/11/03 07:08:46;;;;;;;2.20;0.70;;;14.90;88.90;;;;;;5013664;28;20895;-81
2023/11/03 07:11:12;;;;;;;2.20;0.60;;;14.90;88.90;;;;;;4996119;28;20032;-82
2023/11/03 07:13:37;;;;;;;1.92;0.57;;;14.90;89.10;;;;;;4995702;28;20122;-81
2023/11/03 07:16:07;;;;;;;1.00;0.50;;;14.90;89.10;;;;;;5014664;28;20030;-79
2023/11/03 07:18:34;;;;;;;1.65;0.73;;;14.90;89.10;;;;;;5011395;28;20032;-81
2023/11/03 07:21:00;;;;;;;1.48;0.52;;;14.90;89.10;;;;;;5014223;28;20033;-81
2023/11/03 07:23:26;;;;;;;1.83;0.73;;;15.00;88.90;;;;;;5015309;28;20022;-80
2023/11/03 07:25:55;;;;;;;1.65;0.60;;;15.00;88.60;;;;;;5015135;28;20025;-81
2023/11/03 07:28:22;;;;;;;0.93;0.45;;;15.30;88.70;;;;;;5015165;28;20045;-80
2023/11/03 07:30:50;;;;;;;2.10;0.80;;;15.00;88.10;;;;;;5011738;28;20025;-80
2023/11/03 07:33:17;;;;;;;1.77;0.63;;;15.00;88.30;;;;;;5011920;28;20025;-81
2023/11/03 07:35:42;;;;;;;1.98;0.50;;;15.00;88.50;;;;;;5031678;28;20033;-82
2023/11/03 07:38:09;;;;;;;3.17;0.60;;;15.00;88.50;;;;;;5016798;28;20484;-81
2023/11/03 07:40:34;;;;;;;0.40;0.38;;;15.00;88.50;;;;;;5031593;28;20828;-81
2023/11/03 07:43:00;;;;;;;1.55;0.60;;;15.00;88.60;;;;;;5014292;28;20057;-80
2023/11/03 07:45:27;;;;;;;1.40;0.68;;;14.90;88.50;;;;;;5032707;28;20368;-81
2023/11/03 07:47:52;;;;;;;1.15;0.50;;;14.90;88.60;;;;;;5014350;28;20017;-81
2023/11/03 07:50:18;;;;;;;2.03;0.60;;;14.90;88.60;;;;;;5015958;28;20033;-80
2023/11/03 07:52:44;;;;;;;2.15;0.63;;;14.90;88.70;;;;;;5017451;28;20037;-80
2023/11/03 07:55:15;;;;;;;2.38;0.63;;;15.00;88.80;;;;;;5018225;28;20746;-81
2023/11/03 07:57:41;;;;;;;2.20;0.52;;;14.90;88.90;;;;;;5019328;28;20038;-81
2023/11/03 08:00:09;;;;;;;2.85;0.80;;;14.90;88.90;;;;;;5017760;28;20029;-81
2023/11/03 08:02:35;;;;;;;0.95;0.50;;;14.90;88.60;;;;;;5034888;28;20029;-80
2023/11/03 08:05:01;;;;;;;1.80;0.60;;;14.90;88.90;;;;;;5017349;28;20051;-81
2023/11/03 08:07:28;;;;;;;4.07;0.70;;;14.90;88.90;;;;;;5033649;28;20467;-80
2023/11/03 08:09:53;;;;;;;2.47;0.70;;;14.90;88.80;;;;;;5016161;28;20025;-82
2023/11/03 08:12:19;;;;;;;2.13;0.80;;;14.90;88.50;;;;;;5018954;28;20079;-81
2023/11/03 08:14:45;;;;;;;2.60;0.60;;;14.90;88.50;;;;;;5018516;28;20033;-80
2023/11/03 08:17:11;;;;;;;2.92;0.60;;;14.90;88.60;;;;;;5019863;28;20476;-80
2023/11/03 08:19:38;;;;;;;4.88;0.85;;;14.90;88.70;;;;;;5038115;28;20064;-82
2023/11/03 08:22:04;;;;;;;2.80;0.60;;;14.90;88.70;;;;;;5035896;28;20030;-81
2023/11/03 08:24:30;;;;;;;3.70;0.98;;;14.90;88.60;;;;;;5017679;28;20026;-81
2023/11/03 08:26:56;;;;;;;2.25;0.60;;;14.90;88.80;;;;;;5017103;28;20037;-81
2023/11/03 08:29:22;;;;;;;1.30;0.52;;;14.90;88.60;;;;;;5035159;28;20029;-81
2023/11/03 08:31:47;;;;;;;1.42;0.70;;;14.90;88.90;;;;;;5018184;28;20484;-80
2023/11/03 08:34:13;;;;;;;1.58;0.50;;;14.90;89.00;;;;;;5014646;28;20077;-81
2023/11/03 08:36:39;;;;;;;2.10;0.70;;;14.90;89.00;;;;;;5037628;28;20029;-80
2023/11/03 08:39:06;;;;;;;1.83;0.65;;;14.90;89.00;;;;;;5019374;28;20033;-81
2023/11/03 08:41:32;;;;;;;1.30;0.50;;;15.00;88.90;;;;;;5019458;28;20784;-81
2023/11/03 08:43:58;;;;;;;2.03;0.73;;;15.00;88.70;;;;;;5018858;28;20029;-80
2023/11/03 08:46:24;;;;;;;2.40;0.60;;;15.10;88.50;;;;;;5015170;28;20040;-80
2023/11/03 08:48:49;;;;;;;2.70;0.73;;;15.00;88.40;;;;;;5016972;28;20036;-80
2023/11/03 08:51:16;;;;;;;1.55;0.40;;;15.00;88.10;;;;;;5037466;28;20041;-79
2023/11/03 08:53:43;;;;;;;1.38;0.57;;;15.00;88.40;;;;;;5012975;28;20083;-80
2023/11/03 08:56:08;;;;;;;1.83;0.52;;;15.00;88.30;;;;;;5013567;28;20500;-80
2023/11/03 08:58:34;;;;;;;2.67;0.60;;;15.00;88.30;;;;;;4997551;28;20079;-80
2023/11/03 09:01:00;;;;;;;1.85;0.70;;;15.00;88.20;;;;;;4997334;28;20030;-81
2023/11/03 09:03:27;;;;;;;2.38;0.60;;;15.00;88.50;;;;;;4997829;28;20018;-80
2023/11/03 09:05:54;;;;;;;3.22;0.85;;;15.00;88.50;;;;;;4997402;28;20030;-80
2023/11/03 09:08:20;;;;;;;1.55;0.57;;;15.00;88.40;;;;;;5014655;28;20109;-80
2023/11/03 09:10:45;;;;;;;2.67;0.80;;;14.90;88.20;;;;;;4996873;28;20096;-81
2023/11/03 09:13:11;;;;;;;1.45;0.50;;;14.90;88.40;;;;;;5006790;28;20030;-81
2023/11/03 09:15:37;;;;;;;2.05;0.50;;;14.90;88.40;;;;;;4995701;28;20033;-82
2023/11/03 09:18:05;;;;;;;3.33;0.70;;;14.90;88.70;;;;;;4997670;28;20026;-81
2023/11/03 09:20:31;;;;;;;1.90;0.55;;;14.90;88.60;;;;;;4997160;28;20713;-82
2023/11/03 09:22:56;;;;;;;1.42;0.60;;;15.00;88.80;;;;;;4997290;28;20025;-81
2023/11/03 09:25:22;;;;;;;1.55;0.70;;;14.90;88.80;;;;;;4996545;28;20029;-81
2023/11/03 09:57:51;;;;;;;2.45;0.70;;;14.90;88.50;;;;;;5121168;27;1197524;-83
2023/11/03 10:00:19;;;;;;;2.80;0.80;;;14.90;88.80;;;;;;5138434;22;20015;-80
2023/11/03 10:02:49;;;;;;;3.30;0.70;;;14.90;88.70;;;;;;5094203;28;20085;-80
2023/11/03 10:05:16;;;;;;;2.00;0.88;;;15.00;88.60;;;;;;5076706;28;20028;-81
2023/11/03 10:08:03;;;;;;;1.98;0.75;;;15.00;88.50;;;;;;5075348;28;20026;-81
2023/11/03 10:10:30;;;;;;;1.58;0.60;;;15.00;88.30;;;;;;5099275;28;20027;-83
2023/11/03 10:12:57;;;;;;;3.47;0.80;;;15.00;88.20;;;;;;5094497;28;20019;-81
2023/11/03 10:15:24;;;;;;;2.97;0.90;;;15.00;88.20;;;;;;5097741;28;20115;-83
2023/11/03 10:17:50;;;;;;;1.20;0.80;;;15.00;88.30;;;;;;5115805;28;20027;-81
2023/11/03 10:20:20;;;;;;;1.75;0.65;;;15.00;88.40;;;;;;5096776;28;20409;-83
2023/11/03 10:22:47;;;;;;;2.30;0.75;;;15.00;88.50;;;;;;5096406;28;20028;-81
2023/11/03 10:25:14;;;;;;;1.60;0.60;;;15.00;88.60;;;;;;5095364;28;20058;-81
2023/11/03 10:27:39;;;;;;;2.08;0.80;;;15.00;88.60;;;;;;5114243;28;20020;-83
2023/11/03 10:30:06;;;;;;;2.67;0.73;;;15.00;88.70;;;;;;5096597;28;20024;-81
2023/11/03 10:32:35;;;;;;;1.27;0.60;;;14.90;88.80;;;;;;5096028;28;20489;-81
2023/11/03 10:35:07;;;;;;;3.08;1.00;;;15.00;88.80;;;;;;5095872;28;20105;-81
2023/11/03 10:37:37;;;;;;;2.17;0.93;;;15.00;88.90;;;;;;5114504;28;20073;-81
2023/11/03 10:40:04;;;;;;;2.10;0.80;;;14.90;88.90;;;;;;5114302;28;20042;-82
2023/11/03 10:42:30;;;;;;;2.85;0.80;;;15.00;89.00;;;;;;5114476;28;20457;-82
2023/11/03 10:44:57;;;;;;;2.60;0.80;;;14.90;89.00;;;;;;5096094;28;20043;-81
2023/11/03 10:47:27;;;;;;;2.00;0.70;;;14.90;89.00;;;;;;5114089;28;20483;-81
2023/11/03 10:50:05;;;;;;;3.10;1.02;;;14.90;89.10;;;;;;5114357;28;20019;-82
2023/11/03 10:52:41;;;;;;;2.55;0.65;;;14.90;89.10;;;;;;5095451;28;20020;-81
2023/11/03 10:55:29;;;;;;;2.72;0.70;;;14.90;89.20;;;;;;5114464;28;20517;-82
2023/11/03 10:57:58;;;;;;;2.42;0.63;;;14.90;89.20;;;;;;5104655;28;20091;-82
2023/11/03 11:00:31;;;;;;;3.45;0.75;;;15.00;89.30;;;;;;5081910;28;20027;-81
2023/11/03 11:03:18;;;;;;;1.55;0.75;;;14.90;89.20;;;;;;5082187;28;20024;-82
2023/11/03 11:06:08;;;;;;;2.30;0.80;;;14.90;89.20;;;;;;5082583;28;20024;-83
2023/11/03 11:08:36;;;;;;;1.80;0.77;;;15.00;89.30;;;;;;5081676;28;20028;-82
2023/11/03 11:11:03;;;;;;;2.05;0.65;;;15.00;89.20;;;;;;5082084;28;20025;-81
2023/11/03 11:13:28;;;;;;;3.30;0.73;;;15.00;89.10;;;;;;5081533;28;20063;-82
2023/11/03 11:15:57;;;;;;;2.03;0.60;;;15.00;89.00;;;;;;5080793;28;20024;-81
2023/11/03 11:18:24;;;;;;;2.28;0.63;;;15.10;89.00;;;;;;5081060;28;20021;-81
2023/11/03 11:20:55;;;;;;;3.53;0.70;;;15.10;88.80;;;;;;5080695;28;20276;-82
2023/11/03 11:23:24;;;;;;;2.35;0.70;;;15.20;88.60;;;;;;5099719;28;20024;-81
2023/11/03 11:25:50;;;;;;;1.52;0.60;;;15.20;88.40;;;;;;5080912;28;20546;-81
2023/11/03 11:28:35;;;;;;;2.30;0.75;;;15.30;88.20;;;;;;5079901;28;20024;-82
2023/11/03 11:31:27;;;;;;;2.55;0.68;;;15.30;88.00;;;;;;5080342;28;20111;-81
2023/11/03 11:34:07;;;;;;;2.03;0.75;;;15.40;88.00;;;;;;5080155;28;20107;-81
2023/11/03 11:36:34;;;;;;;2.72;0.70;;;15.40;87.80;;;;;;5080751;28;20439;-81
2023/11/03 11:39:06;;;;;;;2.92;0.80;;;15.40;87.70;;;;;;5098788;28;20088;-81
2023/11/03 11:41:34;;;;;;;;;;;15.40;87.70;;;;;;5098967;28;20046;-81
2023/11/03 11:44:02;;;;;;;3.28;0.80;;;15.40;87.80;;;;;;5080290;28;19942;-81
2023/11/03 11:46:29;;;;;;;1.80;0.55;;;15.40;87.90;;;;;;5098573;28;20022;-80
2023/11/03 11:49:01;;;;;;;1.98;0.70;;;15.40;88.00;;;;;;5080293;28;20063;-81
2023/11/03 11:51:27;;;;;;;2.40;0.93;;;15.40;88.00;;;;;;5080266;28;20071;-81
2023/11/03 11:53:59;;;;;;;1.55;0.60;;;15.40;88.10;;;;;;5080398;28;20060;-81
2023/11/03 11:56:25;;;;;;;1.30;0.55;;;15.40;88.20;;;;;;5097430;28;20396;-81
2023/11/03 11:58:53;;;;;;;1.67;0.65;;;15.40;88.20;;;;;;5080175;28;20035;-82
2023/11/03 12:01:19;;;;;;;2.50;0.70;;;15.40;88.20;;;;;;5080087;28;20036;-81
2023/11/03 12:03:45;;;;;;;2.60;0.50;;;15.40;88.20;;;;;;5080266;28;20070;-81
2023/11/03 12:06:11;;;;;;;1.85;0.80;;;15.40;88.30;;;;;;5078140;28;20028;-81
2023/11/03 12:08:38;;;;;;;1.63;0.65;;;15.40;88.20;;;;;;5078868;28;20546;-81
2023/11/03 12:11:06;;;;;;;1.63;0.60;;;15.40;88.30;;;;;;5097576;28;20382;-81
2023/11/03 12:13:32;;;;;;;1.58;0.80;;;15.40;88.40;;;;;;5098378;28;20051;-83
2023/11/03 12:15:59;;;;;;;1.63;0.63;;;15.30;88.40;;;;;;5080019;28;20028;-85
2023/11/03 12:18:25;;;;;;;0.93;0.50;;;15.40;88.50;;;;;;5079962;28;20028;-81
2023/11/03 12:21:03;;;;;;;2.33;0.70;;;15.40;88.50;;;;;;5079577;28;20031;-81
2023/11/03 12:23:29;;;;;;;3.03;0.90;;;15.30;88.50;;;;;;5098364;28;20028;-81
2023/11/03 12:25:58;;;;;;;1.08;0.47;;;15.40;88.50;;;;;;5079494;28;20035;-81
2023/11/03 12:28:24;;;;;;;1.25;0.45;;;15.30;88.50;;;;;;5079587;28;20615;-81
2023/11/03 12:30:51;;;;;;;1.50;0.60;;;15.40;88.70;;;;;;5079564;28;20409;-81
2023/11/03 12:33:18;;;;;;;2.30;0.63;;;15.40;88.70;;;;;;5079603;28;20478;-80
2023/11/03 12:35:44;;;;;;;1.65;0.70;;;15.30;88.70;;;;;;5079456;28;20061;-82
2023/11/03 12:38:10;;;;;;;2.10;0.70;;;15.30;88.80;;;;;;5079449;28;20085;-81
2023/11/03 12:40:36;;;;;;;2.08;0.77;;;15.40;88.80;;;;;;5079073;28;20032;-81
2023/11/03 12:43:12;;;;;;;2.80;0.85;;;15.40;88.80;;;;;;5078672;28;20546;-82
2023/11/03 12:45:41;;;;;;;1.88;0.70;;;15.40;88.60;;;;;;5096654;28;20024;-81
2023/11/03 12:48:23;;;;;;;2.08;0.73;;;15.40;88.40;;;;;;5078447;28;20557;-81
2023/11/03 12:50:55;;;;;;;1.63;0.75;;;15.40;88.30;;;;;;5079017;28;20034;-81
2023/11/03 12:53:22;;;;;;;2.83;0.93;;;15.40;88.20;;;;;;5079075;28;20046;-80
2023/11/03 12:55:57;;;;;;;1.80;0.75;;;15.50;88.20;;;;;;5078755;28;20119;-81
2023/11/03 12:58:22;;;;;;;1.27;0.65;;;15.40;88.20;;;;;;5097228;28;20028;-81
2023/11/03 13:00:49;;;;;;;1.42;0.60;;;15.40;88.40;;;;;;5079059;28;20089;-81
2023/11/03 13:03:17;;;;;;;1.45;0.60;;;15.40;88.50;;;;;;5096923;28;20020;-81
2023/11/03 13:05:44;;;;;;;1.60;0.60;;;15.40;88.60;;;;;;5078463;28;20025;-81
2023/11/03 13:08:10;;;;;;;1.75;0.60;;;15.30;88.70;;;;;;5078387;28;20044;-80
2023/11/03 13:10:38;;;;;;;1.05;0.60;;;15.30;88.80;;;;;;5096361;28;20095;-80
2023/11/03 13:13:05;;;;;;;1.48;0.70;;;15.30;88.90;;;;;;5097266;28;20012;-81
2023/11/03 13:15:31;;;;;;;1.10;0.60;;;15.30;88.90;;;;;;5079200;28;20028;-81
2023/11/03 13:17:57;;;;;;;1.40;0.60;;;15.30;88.90;;;;;;5078536;28;20393;-81